Latest Weather Observations for Gingin Airport

IDW60801

Issued at 6:02 pm WST Sunday 25 January 2015 (issued every 30 minutes, with the page automatically refreshed every 10 minutes)

About weather observations | Map of weather stations | Latest weather observations for WA | Other Formats
Station Details ID: 009178 Name: GINGIN AERO Lat: -31.46 Lon: 115.86 Height: 73.0 m
Data from the previous 72 hours. | See also: Recent months at Gingin Airport
Date/Time
WST
Temp
°C
App
Temp
°C
Dew
Point
Rel
Hum
%
Delta-T
°C
Wind Press
QNH
hPa
Press
MSL
hPa
Rain
since 9 am
mm
Dir
 
Spd
km/h
Gust
km/h
Spd
kts
Gust
kts
25/06:00pm 28.7 25.2 13.4 39 9.1 SW 24 30 13 16 1011.4 1011.0 0.0
25/05:30pm 29.9 25.7 12.3 33 10.4 SSW 26 35 14 19 1011.3 1010.9 0.0
25/05:00pm 32.3 29.2 10.4 26 12.6 S 17 26 9 14 1011.4 1011.0 0.0
25/04:30pm 32.8 26.0 -1.5 11 16.3 SE 24 35 13 19 1011.6 1011.2 0.0
25/04:00pm 32.7 27.0 0.7 13 15.8 SE 20 32 11 17 1011.9 1011.5 0.0
25/03:30pm 32.8 26.2 -0.3 12 16.1 E 24 37 13 20 1012.2 1011.9 0.0
25/03:00pm 32.4 26.3 2.5 15 15.2 E 24 39 13 21 1012.6 1012.3 0.0
25/02:30pm 31.7 26.1 3.7 17 14.4 E 22 35 12 19 1012.8 1012.5 0.0
25/02:00pm 31.9 26.9 4.6 18 14.3 ESE 20 32 11 17 1013.0 1012.7 0.0
25/01:30pm 31.3 26.0 4.9 19 13.9 SE 22 32 12 17 1013.4 1013.1 0.0
25/01:00pm 30.3 24.7 5.6 21 13.0 E 24 33 13 18 1013.8 1013.5 0.0
25/12:30pm 29.6 24.3 6.9 24 12.2 ESE 24 35 13 19 1014.3 1014.0 0.0
25/12:00pm 28.4 22.9 7.6 27 11.2 SE 26 33 14 18 1014.5 1014.2 0.0
25/11:30am 27.9 22.9 8.2 29 10.7 E 24 37 13 20 1014.8 1014.5 0.0
25/11:00am 26.6 21.0 8.6 32 9.8 E 28 37 15 20 1015.3 1015.0 0.0
25/10:30am 25.5 20.7 8.9 35 9.0 E 24 33 13 18 1015.8 1015.5 0.0
25/10:00am 24.9 19.4 9.2 37 8.5 ESE 28 39 15 21 1016.0 1015.7 0.0
25/09:30am 23.9 18.6 9.9 41 7.7 ESE 28 32 15 17 1016.2 1015.9 0.0
25/09:00am 23.0 17.8 10.1 44 7.1 E 28 37 15 20 1016.4 1016.1 0.0
25/08:30am 21.7 15.7 10.2 48 6.3 E 32 41 17 22 1016.3 1016.0 0.0
25/08:00am 20.8 15.6 10.3 51 5.7 ESE 28 37 15 20 1016.2 1015.9 0.0
25/07:30am 19.5 13.6 10.5 56 4.9 E 32 41 17 22 1016.2 1015.9 0.0
25/07:00am 18.5 13.3 10.3 59 4.4 E 28 35 15 19 1016.2 1015.9 0.0
25/06:30am 17.7 13.3 10.3 62 3.9 ESE 24 32 13 17 1015.8 1015.5 0.0
25/06:00am 17.2 12.0 10.3 64 3.7 ESE 28 35 15 19 1015.4 1015.1 0.0
25/05:30am 17.0 12.6 10.4 65 3.5 E 24 32 13 17 1015.1 1014.8 0.0
25/05:00am 17.6 12.9 10.5 63 3.8 ESE 26 35 14 19 1014.9 1014.6 0.0
25/04:30am 18.0 13.0 10.9 63 3.8 E 28 39 15 21 1014.4 1014.1 0.0
25/04:00am 18.3 13.2 10.7 61 4.1 E 28 39 15 21 1014.1 1013.8 0.0
25/03:30am 18.7 14.0 10.5 59 4.4 ESE 26 41 14 22 1014.0 1013.7 0.0
25/03:00am 19.1 14.8 10.6 58 4.6 ESE 24 32 13 17 1013.8 1013.5 0.0
25/02:30am 17.0 14.6 11.5 70 3.0 ESE 15 17 8 9 1013.8 1013.5 0.0
25/02:00am 15.8 14.9 13.8 88 1.1 ESE 11 17 6 9 1013.7 1013.4 0.0
25/01:30am 15.9 15.6 14.3 90 0.9 ESE 9 13 5 7 1013.7 1013.4 0.0
25/01:00am 16.2 15.7 14.9 92 0.8 SE 11 13 6 7 1014.0 1013.7 0.0
25/12:30am 14.9 15.7 12.4 85 1.4 CALM 0 0 0 0 1014.0 1013.7 0.0
25/12:00am 16.6 18.0 14.4 87 1.3 CALM 0 4 0 2 1014.0 1013.7 0.0
 
Date/Time
WST
Temp
°C
App
Temp
°C
Dew
Point
Rel
Hum
%
Delta-T
°C
Wind Press
QNH
hPa
Press
MSL
hPa
Rain
since 9 am
mm
Dir
 
Spd
km/h
Gust
km/h
Spd
kts
Gust
kts
24/11:30pm 16.8 17.5 13.5 81 1.9 S 2 6 1 3 1014.1 1013.8 0.0
24/11:00pm 18.9 19.7 15.9 83 1.8 S 6 7 3 4 1014.3 1014.0 0.0
24/10:30pm 19.1 19.8 15.6 80 2.1 SSE 6 7 3 4 1014.2 1013.9 0.0
24/10:00pm 19.7 19.9 15.8 78 2.3 S 9 11 5 6 1014.5 1014.2 0.0
24/09:30pm 20.2 20.0 15.8 76 2.6 S 11 15 6 8 1014.5 1014.2 0.0
24/09:00pm 20.6 20.1 16.0 75 2.8 SSW 13 17 7 9 1014.5 1014.2 0.0
24/08:30pm 20.7 19.5 16.1 75 2.8 SSW 17 20 9 11 1014.1 1013.8 0.0
24/08:00pm 20.9 19.6 15.9 73 3.0 SSW 17 24 9 13 1014.1 1013.8 0.0
24/07:30pm 21.3 19.5 15.6 70 3.4 SSW 19 24 10 13 1014.0 1013.7 0.0
24/07:00pm 22.2 19.6 14.8 63 4.4 SSW 22 33 12 18 1013.9 1013.6 0.0
24/06:30pm 23.4 20.7 14.7 58 5.2 SSW 22 28 12 15 1013.6 1013.3 0.0
24/06:00pm 24.9 21.9 14.7 53 6.1 SSW 24 32 13 17 1013.4 1013.1 0.0
24/05:30pm 25.4 21.2 13.6 48 6.9 SSW 28 39 15 21 1013.2 1012.9 0.0
24/05:00pm 26.0 21.1 13.8 47 7.2 SW 32 41 17 22 1013.2 1012.9 0.0
24/04:30pm 27.8 23.3 13.7 42 8.4 SSW 30 37 16 20 1013.0 1012.7 0.0
24/04:00pm 29.1 24.6 12.5 36 9.8 SSW 28 41 15 22 1013.0 1012.7 0.0
24/03:30pm 29.2 23.9 11.3 33 10.3 SSW 30 37 16 20 1013.1 1012.8 0.0
24/03:00pm 29.3 24.0 11.4 33 10.3 SSW 30 37 16 20 1013.2 1012.9 0.0
24/02:30pm 28.6 23.3 11.2 34 10.0 SSW 30 41 16 22 1013.4 1013.1 0.0
24/02:00pm 30.1 25.1 11.1 31 11.0 SSW 28 35 15 19 1013.4 1013.1 0.0
24/01:30pm 31.1 26.9 8.2 24 12.7 S 20 41 11 22 1013.4 1013.1 0.0
24/01:00pm 31.5 27.0 4.3 18 14.1 S 17 30 9 16 1013.9 1013.6 0.0
24/12:30pm 30.4 26.6 5.6 21 13.1 SSE 15 30 8 16 1014.2 1013.9 0.0
24/12:00pm 29.8 26.4 7.7 25 12.0 SE 15 22 8 12 1014.6 1014.3 0.0
24/11:30am 28.5 25.2 8.2 28 11.1 SSE 15 20 8 11 1014.9 1014.6 0.0
24/11:00am 26.8 23.6 8.3 31 10.0 SE 15 26 8 14 1015.4 1015.1 0.0
24/10:30am 26.1 23.3 8.6 33 9.5 SE 13 22 7 12 1015.5 1015.2 0.0
24/10:00am 24.9 21.2 8.0 34 9.0 SE 17 28 9 15 1015.9 1015.6 0.0
24/09:30am 23.4 20.1 9.4 41 7.6 SE 17 28 9 15 1015.9 1015.6 0.0
24/09:00am 22.5 19.3 10.0 45 6.8 SE 17 24 9 13 1016.0 1015.7 0.0
24/08:30am 22.4 18.3 10.2 46 6.7 ESE 22 30 12 16 1016.2 1015.9 0.0
24/08:00am 21.6 17.9 11.6 53 5.6 SE 22 28 12 15 1016.0 1015.7 0.0
24/07:30am 20.2 17.2 11.9 59 4.6 SE 19 26 10 14 1015.8 1015.5 0.0
24/07:00am 18.6 16.2 12.6 68 3.4 SSE 17 20 9 11 1015.7 1015.4 0.0
24/06:30am 16.8 14.9 12.9 78 2.2 SSE 15 17 8 9 1015.4 1015.1 0.0
24/06:00am 14.2 13.0 12.9 92 0.7 S 11 15 6 8 1015.1 1014.8 0.0
24/05:30am 14.0 12.4 12.7 92 0.7 S 13 15 7 8 1014.7 1014.4 0.0
24/05:00am 14.0 12.5 13.2 95 0.4 S 13 17 7 9 1014.4 1014.1 0.0
24/04:30am 14.0 13.4 13.5 97 0.3 SSE 9 9 5 5 1014.2 1013.9 0.0
24/04:00am 13.9 12.7 13.9 100 0.0 SSE 13 17 7 9 1013.9 1013.6 0.0
24/03:30am 14.0 12.8 14.0 100 0.0 SE 13 13 7 7 1013.8 1013.5 0.0
24/03:00am 13.7 13.5 13.7 100 0.0 SSE 7 7 4 4 1013.6 1013.3 0.0
24/02:30am 15.2 14.7 14.9 98 0.2 SSE 11 15 6 8 1013.6 1013.3 0.0
24/02:00am 14.9 14.0 14.9 100 0.0 SSE 13 15 7 8 1013.4 1013.1 0.0
24/01:30am 15.2 15.6 15.2 100 0.0 SE 7 9 4 5 1013.5 1013.2 0.0
24/01:00am 15.7 17.6 15.7 100 0.0 CALM 0 0 0 0 1013.6 1013.3 0.0
24/12:30am 15.2 15.7 15.0 99 0.1 S 6 7 3 4 1013.6 1013.3 0.0
24/12:00am 17.3 18.7 17.3 100 0.0 S 6 7 3 4 1013.6 1013.3 0.0
 
Date/Time
WST
Temp
°C
App
Temp
°C
Dew
Point
Rel
Hum
%
Delta-T
°C
Wind Press
QNH
hPa
Press
MSL
hPa
Rain
since 9 am
mm
Dir
 
Spd
km/h
Gust
km/h
Spd
kts
Gust
kts
23/11:30pm 17.5 18.4 17.5 100 0.0 S 9 9 5 5 1013.6 1013.3 0.0
23/11:00pm 17.9 19.3 17.9 100 0.0 S 7 9 4 5 1013.8 1013.5 0.0
23/10:30pm 18.0 18.6 17.7 98 0.2 S 11 13 6 7 1013.8 1013.5 0.0
23/10:00pm 18.2 19.1 17.6 96 0.4 S 9 13 5 7 1013.9 1013.6 0.0
23/09:30pm 18.6 18.6 17.3 92 0.8 S 13 17 7 9 1013.9 1013.6 0.0
23/09:00pm 18.8 18.5 16.4 86 1.4 S 13 19 7 10 1013.9 1013.6 0.0
23/08:30pm 19.3 18.1 16.2 82 1.9 S 17 24 9 13 1013.7 1013.4 0.0
23/08:00pm 19.8 18.1 16.3 80 2.1 SSW 20 26 11 14 1013.7 1013.4 0.0
23/07:30pm 20.6 18.4 16.0 75 2.8 SSW 22 30 12 16 1013.7 1013.4 0.0
23/07:00pm 21.9 18.7 15.3 66 3.9 SSW 26 37 14 20 1013.5 1013.2 0.0
23/06:30pm 23.4 19.6 13.6 54 5.7 SSW 26 33 14 18 1013.2 1012.9 0.0
23/06:00pm 25.2 22.0 14.3 50 6.5 SW 24 32 13 17 1013.0 1012.7 0.0
23/05:30pm 26.0 21.8 13.5 46 7.4 SSW 28 35 15 19 1013.0 1012.7 0.0
23/05:00pm 26.7 22.5 13.4 43 7.9 SSW 28 33 15 18 1013.0 1012.7 0.0
23/04:30pm 27.1 21.9 12.7 41 8.4 SW 32 39 17 21 1012.9 1012.6 0.0
23/04:00pm 28.2 23.3 12.5 37 9.2 SSW 30 39 16 21 1012.8 1012.5 0.0
23/03:30pm 28.9 23.9 11.0 33 10.3 SSW 28 35 15 19 1012.8 1012.5 0.0
23/03:00pm 28.6 24.6 12.9 38 9.3 SW 26 33 14 18 1013.1 1012.8 0.0
23/02:30pm 30.0 26.9 13.3 36 10.0 SSW 22 28 12 15 1013.2 1012.9 0.0
23/02:00pm 28.2 24.6 12.9 38 9.0 SSW 24 35 13 19 1013.3 1013.0 0.0
23/01:30pm 29.1 25.1 12.9 37 9.6 SSW 26 35 14 19 1013.5 1013.2 0.0
23/01:00pm 30.5 26.9 8.3 25 12.3 SSE 17 28 9 15 1013.4 1013.1 0.0
23/12:30pm 30.5 27.2 9.4 27 11.9 S 17 30 9 16 1013.7 1013.4 0.0
23/12:00pm 29.5 27.9 10.1 30 11.0 ESE 9 17 5 9 1014.2 1013.9 0.0
23/11:30am 28.3 25.9 10.0 32 10.3 ESE 13 22 7 12 1014.3 1014.0 0.0
23/11:00am 27.8 25.5 10.5 34 9.8 SE 13 22 7 12 1014.6 1014.3 0.0
23/10:30am 26.3 23.1 10.0 36 9.1 ESE 17 28 9 15 1014.7 1014.4 0.0
23/10:00am 25.2 21.7 10.3 39 8.3 ESE 19 24 10 13 1014.8 1014.5 0.0
23/09:30am 24.8 21.0 11.0 42 7.8 SE 22 30 12 16 1014.9 1014.6 0.0
23/09:00am 23.4 19.6 11.1 46 6.9 ESE 22 30 12 16 1015.1 1014.8 0.0
23/08:30am 22.3 18.1 11.1 49 6.2 ESE 24 30 13 16 1015.3 1015.0 0.0
23/08:00am 21.6 17.5 11.3 52 5.7 ESE 24 33 13 18 1015.3 1015.0 0.0
23/07:30am 20.3 16.2 11.5 57 4.9 ESE 24 30 13 16 1015.4 1015.1 0.0
23/07:00am 20.0 16.2 11.2 57 4.8 ESE 22 32 12 17 1015.0 1014.7 0.0
23/06:30am 20.5 17.1 11.4 56 5.0 ESE 20 26 11 14 1015.0 1014.7 0.0
23/06:00am 19.8 17.0 11.3 58 4.7 ESE 17 24 9 13 1014.7 1014.4 0.0
23/05:30am 20.0 16.9 11.5 58 4.7 ESE 19 24 10 13 1014.5 1014.2 0.0
23/05:00am 18.6 17.0 11.4 63 3.9 SE 11 15 6 8 1014.3 1014.0 0.0
23/04:30am 18.0 16.2 12.0 68 3.3 SSE 13 17 7 9 1014.0 1013.7 0.0
23/04:00am 17.7 16.4 12.6 72 2.8 SSE 11 15 6 8 1013.9 1013.6 0.0
23/03:30am 17.0 15.5 13.1 78 2.2 SSE 13 15 7 8 1014.0 1013.7 0.0
23/03:00am 16.6 16.1 13.7 83 1.6 SSE 9 11 5 6 1014.0 1013.7 0.0
23/02:30am 16.7 16.3 14.2 85 1.4 SSE 9 11 5 6 1014.1 1013.8 0.0
23/02:00am 16.8 16.8 15.2 90 0.9 SSE 9 11 5 6 1014.1 1013.8 0.0
23/01:30am 17.0 17.7 15.5 91 0.9 SSE 6 7 3 4 1014.2 1013.9 0.0
23/01:00am 17.1 17.9 15.8 92 0.8 S 6 7 3 4 1014.3 1014.0 0.0
23/12:30am 17.3 17.5 15.8 91 0.9 S 9 9 5 5 1014.4 1014.1 0.0
23/12:00am 17.1 18.8 15.3 89 1.1 CALM 0 0 0 0 1014.6 1014.3 0.0
 
Date/Time
WST
Temp
°C
App
Temp
°C
Dew
Point
Rel
Hum
%
Delta-T
°C
Wind Press
QNH
hPa
Press
MSL
hPa
Rain
since 9 am
mm
Dir
 
Spd
km/h
Gust
km/h
Spd
kts
Gust
kts
22/11:30pm 18.7 19.3 16.7 88 1.2 S 9 11 5 6 1014.7 1014.4 0.0
22/11:00pm 19.4 20.6 16.8 85 1.6 SSW 6 7 3 4 1014.9 1014.6 0.0
22/10:30pm 20.1 20.7 16.9 82 1.9 SSW 9 11 5 6 1015.2 1014.9 0.0
22/10:00pm 20.5 21.0 16.5 78 2.4 S 9 13 5 7 1015.4 1015.1 0.0
22/09:30pm 21.1 20.8 16.5 75 2.8 S 13 17 7 9 1015.3 1015.0 0.0
22/09:00pm 21.3 20.2 16.3 73 3.0 S 17 22 9 12 1015.1 1014.8 0.0
22/08:30pm 21.6 20.4 16.1 71 3.3 SSW 17 22 9 12 1015.1 1014.8 0.0
22/08:00pm 21.7 20.1 16.0 70 3.4 SSW 19 26 10 14 1015.1 1014.8 0.0
22/07:30pm 21.8 20.4 15.6 68 3.7 SSW 17 26 9 14 1015.1 1014.8 0.0
22/07:00pm 22.3 19.9 15.4 65 4.1 SSW 22 32 12 17 1014.9 1014.6 0.0
22/06:30pm 23.3 20.4 15.1 60 4.9 SSW 24 32 13 17 1014.8 1014.5 0.0

Other Formats:

Comma delimited format used in spreadsheet applications
http://www.bom.gov.au/fwo/IDW60801/IDW60801.95612.axf

JavaScript Object Notation format (JSON) in row-major order
http://www.bom.gov.au/fwo/IDW60801/IDW60801.95612.json